Terminal Aerodrome Forecast
Issued by NWS Charleston, WV

Home | Current Version | Previous Version | Text Only | Print | Product List | Glossary On
Versions: 1 2 3 4 5 6 7 8 9 10 11 12 13 14 15 16 17 18 19 20 21 22 23 24 25 26 27 28
000
FTUS41 KRLX 290237 AAA
TAFHTS
TAF AMD
KHTS 290237Z 2903/2924 09003KT P6SM SCT050
     FM290500 00000KT 5SM BR FEW050
     FM290800 00000KT 2SM BR FEW050
     FM290900 00000KT 1/4SM FG VV001
     FM291200 00000KT 3/4SM BR SCT001
     FM291300 00000KT 3SM HZ FEW001
     FM291400 00000KT 6SM HZ FEW050
     FM291500 00000KT P6SM SCT050=

USA.gov is the U.S. government's official web portal to all federal, state and local government web resources and services.